Time;durP1;ratioP1;P1;durP2;ratioP2;P2;SDS_P1;SDS_P2;PMS_P1;PMS_P2;Temp;Humidity;BMP_temperature;BMP_pressure;BME280_temperature;BME280_humidity;BME280_pressure;Samples;Min_cycle;Max_cycle;Signal;HPM_P1;HPM_P2
2023/10/19 00:00:40;;;;;;;6.17;1.30;;;17.40;99.90;;;;;;7303655;19;20579;-80
2023/10/19 00:03:07;;;;;;;5.27;1.03;;;17.60;99.90;;;;;;7288817;19;20192;-80
2023/10/19 00:05:33;;;;;;;6.50;1.93;;;17.50;99.90;;;;;;7309254;19;20656;-80
2023/10/19 00:08:05;;;;;;;6.17;1.80;;;17.60;99.90;;;;;;7287095;19;20848;-79
2023/10/19 00:10:34;;;;;;;7.57;2.60;;;17.60;99.90;;;;;;7285564;19;20680;-79
2023/10/19 00:13:06;;;;;;;10.27;4.07;;;17.60;99.90;;;;;;7287255;19;20205;-80
2023/10/19 00:15:34;;;;;;;14.23;5.67;;;17.60;99.90;;;;;;7286561;19;20725;-80
2023/10/19 00:23:18;;;;;;;17.47;6.10;;;17.60;99.90;;;;;;7286617;19;20219;-79
2023/10/19 00:25:53;;;;;;;12.37;5.10;;;17.60;99.90;;;;;;7283898;19;20195;-79
2023/10/19 00:28:19;;;;;;;14.53;4.50;;;17.60;99.90;;;;;;7285934;19;20264;-80
2023/10/19 00:30:46;;;;;;;11.43;3.67;;;17.70;99.90;;;;;;7283420;19;20648;-81
2023/10/19 00:33:20;;;;;;;10.97;4.03;;;17.70;99.90;;;;;;7286119;19;20213;-80
2023/10/19 00:41:04;;;;;;;12.33;3.30;;;17.60;99.90;;;;;;7286594;19;20192;-80
2023/10/19 00:43:36;;;;;;;8.40;3.07;;;17.50;99.90;;;;;;7287166;19;20201;-80
2023/10/19 00:46:03;;;;;;;11.63;3.37;;;17.50;99.90;;;;;;7285016;19;20543;-80
2023/10/19 00:48:32;;;;;;;10.90;3.47;;;17.50;99.90;;;;;;7286183;19;20192;-80
2023/10/19 00:51:09;;;;;;;10.40;3.57;;;17.40;99.90;;;;;;7286050;19;20173;-79
2023/10/19 00:53:41;;;;;;;11.43;3.43;;;17.50;99.90;;;;;;7264932;19;20252;-83
2023/10/19 00:56:10;;;;;;;9.33;3.17;;;17.40;99.90;;;;;;7286079;19;20276;-82
2023/10/19 00:58:41;;;;;;;10.67;3.60;;;17.30;99.90;;;;;;7285376;19;20189;-83
2023/10/19 01:01:07;;;;;;;12.07;3.33;;;17.40;99.90;;;;;;7287034;19;20203;-83
2023/10/19 01:03:36;;;;;;;9.83;2.50;;;17.40;99.90;;;;;;7307314;19;20682;-83
2023/10/19 01:06:09;;;;;;;7.30;1.97;;;17.40;99.90;;;;;;7284618;19;20185;-83
2023/10/19 01:08:41;;;;;;;7.53;2.00;;;17.40;99.90;;;;;;7263899;19;20222;-83
2023/10/19 01:11:12;;;;;;;9.40;1.50;;;17.40;99.90;;;;;;7285142;19;20188;-83
2023/10/19 01:13:44;;;;;;;9.53;1.63;;;17.40;99.90;;;;;;7286437;19;20810;-84
2023/10/19 01:16:20;;;;;;;7.53;1.17;;;17.50;99.90;;;;;;7286691;19;20217;-83
2023/10/19 01:18:53;;;;;;;6.23;1.23;;;17.30;99.90;;;;;;7285589;19;21017;-83
2023/10/19 01:21:27;;;;;;;6.67;1.00;;;17.30;99.90;;;;;;7286933;19;20548;-82
2023/10/19 01:23:53;;;;;;;6.10;1.20;;;17.30;99.90;;;;;;7287611;19;20198;-83
2023/10/19 01:26:25;;;;;;;6.93;1.10;;;17.40;99.90;;;;;;7285434;19;20196;-83
2023/10/19 01:28:53;;;;;;;5.27;1.27;;;17.30;99.90;;;;;;7285910;19;20185;-83
2023/10/19 01:31:30;;;;;;;5.77;1.13;;;17.30;99.90;;;;;;7286086;19;20714;-83
2023/10/19 01:34:03;;;;;;;8.57;1.20;;;17.40;99.90;;;;;;7286644;19;20208;-83
2023/10/19 01:36:32;;;;;;;4.33;0.90;;;17.40;99.90;;;;;;7285083;19;20228;-83
2023/10/19 01:39:01;;;;;;;5.27;1.10;;;17.40;99.90;;;;;;7284102;19;20357;-82
2023/10/19 01:41:30;;;;;;;8.00;1.27;;;17.30;99.90;;;;;;7285255;19;20200;-83
2023/10/19 01:44:04;;;;;;;13.27;1.30;;;17.30;99.90;;;;;;7285622;19;20192;-83
2023/10/19 01:46:33;;;;;;;6.50;1.10;;;17.40;99.90;;;;;;7284933;19;20192;-83
2023/10/19 01:49:02;;;;;;;7.40;1.20;;;17.40;99.90;;;;;;7284684;19;20181;-83
2023/10/19 01:51:30;;;;;;;6.73;1.20;;;17.40;99.90;;;;;;7284232;19;20579;-82
2023/10/19 01:54:03;;;;;;;5.87;1.10;;;17.30;99.90;;;;;;7284629;19;20301;-83
2023/10/19 01:56:29;;;;;;;11.27;1.50;;;17.30;99.90;;;;;;7284822;19;20187;-82
2023/10/19 01:58:57;;;;;;;11.63;1.50;;;17.20;99.90;;;;;;7284932;19;20294;-83
2023/10/19 02:03:55;;;;;;;9.90;1.33;;;17.20;99.90;;;;;;7280177;19;20196;-82
2023/10/19 02:06:22;;;;;;;7.43;1.20;;;17.10;99.90;;;;;;7281185;19;20192;-83
2023/10/19 02:09:00;;;;;;;6.83;1.20;;;17.20;99.90;;;;;;7283133;19;20196;-83
2023/10/19 02:11:27;;;;;;;7.07;1.20;;;17.20;99.90;;;;;;7282751;19;20195;-83
2023/10/19 02:13:55;;;;;;;10.40;1.50;;;17.10;99.90;;;;;;7282261;19;21019;-83
2023/10/19 02:16:22;;;;;;;8.40;1.30;;;17.00;99.90;;;;;;7281020;19;20219;-83
2023/10/19 02:18:50;;;;;;;12.37;1.57;;;17.00;99.90;;;;;;7281751;19;20203;-83
2023/10/19 02:21:21;;;;;;;7.83;1.47;;;17.00;99.90;;;;;;7282526;19;20560;-83
2023/10/19 02:23:50;;;;;;;10.20;1.53;;;17.00;99.90;;;;;;7282596;19;20196;-83
2023/10/19 02:26:19;;;;;;;12.87;1.77;;;16.90;99.90;;;;;;7280986;19;20199;-82
2023/10/19 02:28:46;;;;;;;10.53;1.47;;;16.70;99.90;;;;;;7281424;19;20196;-82
2023/10/19 02:31:18;;;;;;;10.60;1.47;;;16.70;99.90;;;;;;7281014;19;20674;-83
2023/10/19 02:33:45;;;;;;;8.07;1.37;;;16.70;99.90;;;;;;7284319;19;20198;-82
2023/10/19 02:36:13;;;;;;;10.17;1.43;;;16.60;99.90;;;;;;7282754;19;20186;-82
2023/10/19 02:38:41;;;;;;;13.23;1.70;;;16.60;99.90;;;;;;7282823;19;20223;-82
2023/10/19 02:41:06;;;;;;;16.97;2.13;;;16.60;99.90;;;;;;7282307;19;20368;-82
2023/10/19 02:43:34;;;;;;;10.40;1.53;;;16.50;99.90;;;;;;7304375;19;20195;-81
2023/10/19 02:46:02;;;;;;;8.70;1.60;;;16.50;99.90;;;;;;7282762;19;20188;-82
2023/10/19 02:48:28;;;;;;;12.97;1.80;;;16.50;99.90;;;;;;7283699;19;20208;-82
2023/10/19 02:50:54;;;;;;;8.63;1.60;;;16.50;99.90;;;;;;7281549;19;20628;-82
2023/10/19 02:53:24;;;;;;;10.57;1.47;;;16.50;99.90;;;;;;7282802;19;20204;-82
2023/10/19 02:55:51;;;;;;;11.83;1.57;;;16.40;99.90;;;;;;7288593;19;20197;-82
2023/10/19 02:58:17;;;;;;;7.53;1.83;;;16.40;99.90;;;;;;7287383;19;20194;-82
2023/10/19 03:00:43;;;;;;;13.27;1.77;;;16.50;99.90;;;;;;7289728;19;20216;-82
2023/10/19 03:03:08;;;;;;;9.37;1.77;;;16.60;99.90;;;;;;7289166;19;20224;-82
2023/10/19 03:05:34;;;;;;;13.97;2.10;;;16.80;99.90;;;;;;7295300;19;20274;-82
2023/10/19 03:08:05;;;;;;;12.00;2.00;;;16.80;99.90;;;;;;7311221;19;20651;-83
2023/10/19 03:10:41;;;;;;;10.23;2.03;;;16.90;99.90;;;;;;7288655;19;20286;-80
2023/10/19 03:13:09;;;;;;;11.40;1.90;;;17.00;99.90;;;;;;7266873;19;20718;-82
2023/10/19 03:15:35;;;;;;;13.43;1.83;;;16.90;99.90;;;;;;7291420;19;20222;-82
2023/10/19 03:18:03;;;;;;;10.23;1.77;;;17.00;99.90;;;;;;7309664;19;20202;-82
2023/10/19 03:20:33;;;;;;;11.97;1.73;;;17.00;99.90;;;;;;7289440;19;20675;-82
2023/10/19 03:23:01;;;;;;;12.47;2.07;;;17.00;99.90;;;;;;7289125;19;20192;-82
2023/10/19 03:28:16;;;;;;;10.97;1.70;;;17.00;99.90;;;;;;7184742;19;2004602;-82
2023/10/19 03:30:42;;;;;;;9.40;2.07;;;17.10;99.90;;;;;;7287359;19;20210;-82
2023/10/19 03:33:12;;;;;;;10.03;1.80;;;17.00;99.90;;;;;;7287241;19;20183;-82
2023/10/19 03:35:41;;;;;;;10.40;1.83;;;17.00;99.90;;;;;;7287302;19;20196;-82
2023/10/19 03:38:16;;;;;;;11.47;1.90;;;17.00;99.90;;;;;;7286256;19;20573;-82
2023/10/19 03:40:47;;;;;;;13.60;1.63;;;17.00;99.90;;;;;;7287213;19;20224;-82
2023/10/19 03:43:21;;;;;;;10.53;2.13;;;17.10;99.90;;;;;;7289401;19;20208;-81
2023/10/19 03:45:52;;;;;;;15.00;2.00;;;17.10;99.90;;;;;;7288459;19;20195;-82
2023/10/19 03:48:38;;;;;;;10.27;1.60;;;17.10;99.90;;;;;;7288808;19;20570;-82
2023/10/19 03:51:04;;;;;;;10.43;1.87;;;17.20;99.90;;;;;;7282486;19;20196;-83
2023/10/19 03:53:32;;;;;;;11.90;2.00;;;17.20;99.90;;;;;;7308881;19;20227;-80
2023/10/19 03:55:58;;;;;;;15.77;1.93;;;17.20;99.90;;;;;;7286542;19;20281;-81
2023/10/19 03:58:28;;;;;;;11.40;1.80;;;17.20;99.90;;;;;;7285780;19;20220;-81
2023/10/19 04:01:01;;;;;;;12.77;1.90;;;17.20;99.90;;;;;;7286423;19;20215;-80
2023/10/19 04:03:30;;;;;;;11.47;1.47;;;17.10;99.90;;;;;;7286872;19;20199;-80
2023/10/19 04:05:56;;;;;;;15.63;1.90;;;17.10;99.90;;;;;;7284712;19;20185;-81
2023/10/19 04:08:26;;;;;;;16.20;1.97;;;17.10;99.90;;;;;;7287487;19;20731;-80
2023/10/19 04:11:21;;;;;;;12.13;1.67;;;17.10;99.90;;;;;;7286867;19;20199;-81
2023/10/19 04:13:39;;;;;;;14.20;2.33;;;17.10;99.90;;;;;;7265718;19;20209;-81
2023/10/19 04:16:09;;;;;;;15.33;2.00;;;17.20;99.90;;;;;;7295901;19;20283;-80
2023/10/19 04:18:38;;;;;;;15.73;2.30;;;17.00;99.90;;;;;;7293940;19;20205;-79
2023/10/19 04:21:04;;;;;;;13.53;1.90;;;17.10;99.90;;;;;;7309062;19;20216;-80
2023/10/19 04:23:34;;;;;;;11.43;1.53;;;17.10;99.90;;;;;;7299314;19;20189;-80
2023/10/19 04:26:10;;;;;;;7.43;1.43;;;17.10;99.90;;;;;;7285624;19;20196;-80
2023/10/19 04:28:41;;;;;;;10.57;1.73;;;17.20;99.90;;;;;;7265475;19;20677;-80
2023/10/19 04:31:07;;;;;;;12.57;1.60;;;17.30;99.90;;;;;;7285744;19;20264;-79
2023/10/19 04:33:36;;;;;;;14.50;2.23;;;17.30;99.90;;;;;;7306786;19;20297;-79
2023/10/19 04:36:02;;;;;;;7.53;1.50;;;17.20;99.90;;;;;;7285899;19;20210;-79
2023/10/19 04:38:30;;;;;;;13.77;2.03;;;17.30;99.90;;;;;;7285692;19;20189;-79
2023/10/19 04:41:07;;;;;;;12.07;2.03;;;17.20;99.90;;;;;;7284647;19;20547;-80
2023/10/19 04:43:37;;;;;;;12.00;2.00;;;17.10;99.90;;;;;;7284056;19;20713;-80
2023/10/19 04:46:11;;;;;;;15.07;2.03;;;17.20;99.90;;;;;;7286603;19;20202;-80
2023/10/19 04:48:40;;;;;;;14.23;2.03;;;17.20;99.90;;;;;;7262599;19;20212;-80
2023/10/19 04:51:07;;;;;;;15.60;2.33;;;17.10;99.90;;;;;;7283608;19;20181;-79
2023/10/19 04:53:33;;;;;;;11.90;2.23;;;17.10;99.90;;;;;;7306890;19;20203;-80
2023/10/19 04:56:03;;;;;;;10.87;1.87;;;17.20;99.90;;;;;;7285991;19;20190;-80
2023/10/19 04:58:29;;;;;;;16.73;2.23;;;17.20;99.90;;;;;;7284499;19;20202;-80
2023/10/19 05:00:58;;;;;;;12.43;2.00;;;17.30;99.90;;;;;;7285206;19;20634;-80
2023/10/19 05:03:24;;;;;;;10.10;1.50;;;17.30;99.90;;;;;;7285701;19;20222;-79
2023/10/19 05:05:51;;;;;;;11.37;1.77;;;17.40;99.90;;;;;;7283435;19;20227;-80
2023/10/19 05:08:17;;;;;;;12.47;2.00;;;17.40;99.90;;;;;;7284434;19;20195;-81
2023/10/19 05:10:43;;;;;;;13.43;1.83;;;17.30;99.90;;;;;;7284683;19;20200;-80
2023/10/19 05:13:08;;;;;;;12.87;1.77;;;17.40;99.90;;;;;;7281785;19;20194;-80
2023/10/19 05:15:34;;;;;;;12.77;2.00;;;17.40;99.90;;;;;;7295424;19;20231;-79
2023/10/19 05:18:02;;;;;;;13.67;1.97;;;17.20;99.90;;;;;;7300212;19;20187;-83
2023/10/19 05:20:28;;;;;;;11.37;1.80;;;17.20;99.90;;;;;;7283825;19;20196;-80
2023/10/19 05:22:54;;;;;;;9.43;1.60;;;17.20;99.90;;;;;;7283064;19;20198;-80
2023/10/19 05:25:20;;;;;;;13.63;2.00;;;17.20;99.90;;;;;;7283114;19;20195;-80
2023/10/19 05:27:46;;;;;;;14.67;2.00;;;17.30;99.90;;;;;;7283597;19;20882;-79
2023/10/19 05:30:12;;;;;;;18.90;2.73;;;17.30;99.90;;;;;;7283837;19;20289;-79
2023/10/19 05:32:38;;;;;;;15.23;2.10;;;17.30;99.90;;;;;;7282507;19;20195;-80
2023/10/19 05:35:04;;;;;;;11.53;1.73;;;17.30;99.90;;;;;;7300123;19;20183;-80
2023/10/19 05:37:33;;;;;;;18.43;2.33;;;17.30;99.90;;;;;;7300389;19;20177;-79
2023/10/19 05:39:59;;;;;;;12.67;1.93;;;17.30;99.90;;;;;;7282559;19;20276;-80
2023/10/19 05:42:26;;;;;;;12.73;1.90;;;17.20;99.90;;;;;;7282628;19;20623;-81
2023/10/19 05:44:52;;;;;;;14.87;2.23;;;17.30;99.90;;;;;;7282711;19;20199;-83
2023/10/19 05:47:18;;;;;;;10.90;1.97;;;17.20;99.90;;;;;;7283227;19;20193;-85
2023/10/19 05:49:44;;;;;;;13.93;1.93;;;17.20;99.90;;;;;;7284119;19;20196;-85
2023/10/19 05:52:10;;;;;;;15.13;1.87;;;17.20;99.90;;;;;;7283059;19;20287;-85
2023/10/19 05:54:37;;;;;;;11.70;2.30;;;17.10;99.90;;;;;;7282412;19;20739;-85
2023/10/19 05:57:08;;;;;;;14.80;2.28;;;17.10;99.90;;;;;;7305491;19;20626;-83
2023/10/19 05:59:33;;;;;;;12.93;1.77;;;17.10;99.90;;;;;;7281983;19;20198;-83
2023/10/19 06:01:59;;;;;;;13.50;3.90;;;17.00;99.90;;;;;;7283851;19;20527;-83
2023/10/19 06:04:25;;;;;;;13.90;2.97;;;17.00;99.90;;;;;;7280027;19;20176;-83
2023/10/19 06:06:51;;;;;;;16.73;4.23;;;17.00;99.90;;;;;;7283765;19;20527;-82
2023/10/19 06:09:19;;;;;;;14.27;3.10;;;17.00;99.90;;;;;;7282092;19;20196;-83
2023/10/19 06:11:45;;;;;;;14.23;2.27;;;17.00;99.90;;;;;;7282982;19;20192;-83
2023/10/19 06:14:11;;;;;;;12.33;2.30;;;17.10;99.90;;;;;;7282652;19;20196;-82
2023/10/19 06:16:37;;;;;;;17.43;2.70;;;17.10;99.90;;;;;;7283349;19;20240;-82
2023/10/19 06:19:03;;;;;;;13.87;2.43;;;17.20;99.90;;;;;;7307544;19;20655;-82
2023/10/19 06:21:30;;;;;;;12.27;2.20;;;17.20;99.90;;;;;;7285088;19;20217;-82
2023/10/19 06:23:57;;;;;;;20.30;2.73;;;17.10;99.90;;;;;;7282399;19;20196;-82
2023/10/19 06:26:23;;;;;;;15.27;2.23;;;17.00;99.90;;;;;;7283343;19;20184;-82
2023/10/19 06:28:50;;;;;;;16.00;2.70;;;16.90;99.90;;;;;;7286730;19;20192;-82
2023/10/19 06:31:17;;;;;;;14.00;2.50;;;17.00;99.90;;;;;;7289215;19;20213;-82
2023/10/19 06:33:42;;;;;;;19.37;2.23;;;16.90;99.90;;;;;;7290141;19;20623;-82
2023/10/19 06:36:09;;;;;;;15.27;2.80;;;17.00;99.90;;;;;;7284123;19;20189;-82
2023/10/19 06:38:34;;;;;;;16.53;2.57;;;17.00;99.90;;;;;;7303686;19;20181;-82
2023/10/19 06:41:02;;;;;;;16.77;2.70;;;17.00;99.90;;;;;;7304317;19;20282;-82
2023/10/19 06:43:30;;;;;;;19.93;2.93;;;17.00;99.90;;;;;;7287862;19;20219;-83
2023/10/19 06:45:56;;;;;;;15.33;2.20;;;16.80;99.90;;;;;;7289229;19;20619;-83
2023/10/19 06:48:22;;;;;;;12.13;2.40;;;16.90;99.90;;;;;;7283587;19;21944;-81
2023/10/19 06:50:48;;;;;;;20.53;2.83;;;16.90;99.90;;;;;;7289354;19;20187;-82
2023/10/19 06:53:13;;;;;;;14.03;2.30;;;16.80;99.90;;;;;;7289566;19;21084;-82
2023/10/19 06:55:40;;;;;;;22.60;5.17;;;16.70;99.90;;;;;;7289097;19;20184;-82
2023/10/19 06:58:07;;;;;;;22.10;5.77;;;16.70;99.90;;;;;;7287263;19;20202;-82
2023/10/19 07:00:34;;;;;;;16.27;4.50;;;16.80;99.90;;;;;;7312326;19;20184;-82
2023/10/19 07:03:00;;;;;;;33.20;8.20;;;17.00;99.90;;;;;;7289346;19;20184;-83
2023/10/19 07:05:29;;;;;;;19.43;6.17;;;17.00;99.90;;;;;;7287226;19;20188;-83
2023/10/19 07:07:58;;;;;;;25.93;9.17;;;17.10;99.90;;;;;;7290237;19;20188;-83
2023/10/19 07:10:24;;;;;;;16.27;4.27;;;17.10;99.90;;;;;;7288533;19;20694;-82
2023/10/19 07:12:55;;;;;;;16.70;3.83;;;17.00;99.90;;;;;;7289482;19;20193;-81
2023/10/19 07:15:23;;;;;;;28.17;6.10;;;17.00;99.90;;;;;;7288372;19;20194;-81
2023/10/19 07:17:56;;;;;;;19.47;4.43;;;17.00;99.90;;;;;;7288823;19;20183;-81
2023/10/19 07:20:25;;;;;;;22.50;6.30;;;17.00;99.90;;;;;;7288912;19;20191;-81
2023/10/19 07:25:59;;;;;;;15.47;3.90;;;17.30;99.90;;;;;;7186168;19;2004561;-81
2023/10/19 07:28:26;;;;;;;15.47;3.70;;;17.30;99.90;;;;;;7296157;19;20193;-82
2023/10/19 07:30:52;;;;;;;16.87;4.10;;;17.30;99.90;;;;;;7301739;19;20194;-82
2023/10/19 07:33:19;;;;;;;14.33;3.20;;;17.30;99.90;;;;;;7292546;19;20286;-82
2023/10/19 07:35:59;;;;;;;18.60;3.53;;;17.00;99.90;;;;;;7291601;19;20285;-82
2023/10/19 07:38:28;;;;;;;15.87;3.60;;;17.10;99.90;;;;;;7292376;19;20203;-81
2023/10/19 07:40:54;;;;;;;13.67;2.87;;;17.10;99.90;;;;;;7295754;19;20310;-82
2023/10/19 07:43:20;;;;;;;19.50;4.97;;;17.00;99.90;;;;;;7293731;19;20195;-82
2023/10/19 07:45:46;;;;;;;21.57;5.47;;;17.10;99.90;;;;;;7293455;19;20206;-81
2023/10/19 07:48:14;;;;;;;15.57;3.93;;;17.20;99.90;;;;;;7288337;19;20206;-83
2023/10/19 07:50:43;;;;;;;20.40;4.10;;;17.40;99.90;;;;;;7287293;19;20192;-82
2023/10/19 07:53:12;;;;;;;24.13;7.27;;;17.60;99.90;;;;;;7288112;19;20192;-82
2023/10/19 07:55:38;;;;;;;26.37;6.73;;;17.60;99.90;;;;;;7287523;19;20192;-83
2023/10/19 07:58:06;;;;;;;29.33;6.70;;;17.60;99.90;;;;;;7301573;19;20219;-82
2023/10/19 08:00:34;;;;;;;26.37;6.27;;;17.50;99.90;;;;;;7309784;19;20196;-83
2023/10/19 08:03:00;;;;;;;26.20;6.90;;;17.50;99.90;;;;;;7286594;19;20183;-83
2023/10/19 08:05:26;;;;;;;22.17;6.23;;;17.60;99.90;;;;;;7284110;19;20978;-81
2023/10/19 08:07:52;;;;;;;26.70;7.23;;;17.70;99.90;;;;;;7287882;19;20203;-83
2023/10/19 08:10:20;;;;;;;41.33;9.80;;;17.90;99.90;;;;;;7285854;19;20271;-83
2023/10/19 08:12:47;;;;;;;17.37;4.80;;;18.00;99.90;;;;;;7289227;19;20587;-82
2023/10/19 08:15:15;;;;;;;15.00;3.10;;;18.10;99.90;;;;;;7286558;19;20180;-83
2023/10/19 08:17:43;;;;;;;16.00;2.83;;;17.80;99.90;;;;;;7288736;19;20193;-83
2023/10/19 08:20:23;;;;;;;18.07;3.00;;;17.80;99.90;;;;;;7286797;19;20251;-83
2023/10/19 08:22:50;;;;;;;17.63;2.97;;;17.80;99.90;;;;;;7287280;19;20192;-83
2023/10/19 08:25:16;;;;;;;17.63;2.80;;;17.80;99.90;;;;;;7285833;19;20217;-83
2023/10/19 08:27:49;;;;;;;12.43;2.53;;;17.80;99.90;;;;;;7287611;19;20561;-83
2023/10/19 08:30:19;;;;;;;17.67;2.47;;;17.80;99.90;;;;;;7286221;19;20189;-83
2023/10/19 08:32:49;;;;;;;9.97;2.07;;;17.80;99.90;;;;;;7286949;19;20645;-83
2023/10/19 08:35:25;;;;;;;16.30;2.90;;;17.80;99.90;;;;;;7289076;19;20197;-81
2023/10/19 08:37:52;;;;;;;11.73;2.13;;;17.90;99.90;;;;;;7288528;19;20551;-83
2023/10/19 08:40:19;;;;;;;19.03;3.07;;;17.90;99.90;;;;;;7285873;19;20225;-83
2023/10/19 08:42:46;;;;;;;14.33;2.30;;;18.10;99.90;;;;;;7286133;19;20664;-83
2023/10/19 08:45:13;;;;;;;17.70;2.90;;;18.20;99.90;;;;;;7287644;19;20248;-84
2023/10/19 08:47:50;;;;;;;22.00;3.07;;;18.20;99.90;;;;;;7287617;19;20177;-83
2023/10/19 08:50:16;;;;;;;16.23;3.30;;;18.40;99.90;;;;;;7286854;19;20202;-82
2023/10/19 08:52:44;;;;;;;14.20;2.63;;;18.50;99.90;;;;;;7284527;19;20205;-83
2023/10/19 08:55:12;;;;;;;18.77;3.07;;;18.50;99.90;;;;;;7286190;19;20173;-83
2023/10/19 08:57:39;;;;;;;19.30;2.87;;;18.60;99.90;;;;;;7285287;19;20199;-83
2023/10/19 09:00:07;;;;;;;16.50;2.70;;;18.60;99.90;;;;;;7295710;19;20686;-83
2023/10/19 09:02:33;;;;;;;19.00;3.97;;;18.50;99.90;;;;;;7308145;19;20181;-83
2023/10/19 09:04:59;;;;;;;16.50;3.93;;;18.40;99.90;;;;;;7286512;19;20185;-83
2023/10/19 09:07:30;;;;;;;18.67;4.53;;;18.40;99.90;;;;;;7285935;19;20664;-83
2023/10/19 09:09:57;;;;;;;13.43;3.47;;;18.50;99.90;;;;;;7283851;19;20287;-84
2023/10/19 09:12:23;;;;;;;17.20;3.30;;;18.60;99.90;;;;;;7286156;19;20195;-83
2023/10/19 09:14:49;;;;;;;18.70;3.57;;;18.70;99.90;;;;;;7285444;19;20252;-84
2023/10/19 09:17:17;;;;;;;16.60;3.00;;;18.80;99.90;;;;;;7285092;19;20635;-84
2023/10/19 09:19:47;;;;;;;17.20;2.90;;;19.00;99.90;;;;;;7284275;19;20186;-85
2023/10/19 09:22:18;;;;;;;18.27;2.80;;;19.10;99.90;;;;;;7285949;19;20191;-84
2023/10/19 09:24:49;;;;;;;16.23;2.80;;;19.00;99.90;;;;;;7285836;19;20541;-83
2023/10/19 09:27:21;;;;;;;20.70;3.10;;;19.20;99.90;;;;;;7286563;19;20192;-83
2023/10/19 09:29:51;;;;;;;18.77;3.40;;;19.20;99.90;;;;;;7284618;19;20190;-83
2023/10/19 09:32:17;;;;;;;27.20;7.73;;;19.30;99.90;;;;;;7284940;19;20190;-83
2023/10/19 09:34:44;;;;;;;35.90;11.60;;;19.30;99.90;;;;;;7286747;19;20638;-82
2023/10/19 09:37:11;;;;;;;39.83;11.67;;;19.10;99.90;;;;;;7292778;19;20248;-83
2023/10/19 09:39:37;;;;;;;24.10;5.73;;;19.20;99.90;;;;;;7286348;19;20185;-83
2023/10/19 09:42:10;;;;;;;30.30;8.37;;;19.20;99.90;;;;;;7308280;19;20256;-83
2023/10/19 09:45:00;;;;;;;18.37;4.00;;;19.20;99.90;;;;;;7268929;19;20558;-83
2023/10/19 09:47:35;;;;;;;20.37;3.63;;;19.70;99.90;;;;;;7284258;19;20252;-83
2023/10/19 09:50:02;;;;;;;16.67;3.00;;;19.80;99.90;;;;;;7283300;19;20676;-84
2023/10/19 09:52:31;;;;;;;12.10;2.60;;;20.30;99.90;;;;;;7285415;19;20218;-84
2023/10/19 09:55:08;;;;;;;14.40;2.70;;;20.70;99.90;;;;;;7283424;19;20702;-84
2023/10/19 09:57:52;;;;;;;16.00;2.80;;;20.80;99.90;;;;;;7286103;19;20249;-83
2023/10/19 10:00:23;;;;;;;17.87;2.77;;;20.90;99.90;;;;;;7183020;19;2004598;-83
2023/10/19 10:02:50;;;;;;;17.17;2.97;;;20.50;99.90;;;;;;7284623;19;20223;-84
2023/10/19 10:05:44;;;;;;;18.90;3.17;;;20.50;99.90;;;;;;7291594;19;20206;-84
2023/10/19 10:08:22;;;;;;;17.83;2.80;;;20.30;99.90;;;;;;7188133;19;2004633;-83
2023/10/19 10:10:50;;;;;;;15.87;2.80;;;20.20;99.90;;;;;;7290915;19;20578;-84
2023/10/19 10:13:30;;;;;;;14.43;2.53;;;20.30;99.90;;;;;;7291446;19;20185;-83
2023/10/19 10:16:03;;;;;;;17.07;3.20;;;20.40;99.90;;;;;;7290288;19;20529;-82
2023/10/19 10:18:37;;;;;;;13.00;2.53;;;20.40;99.90;;;;;;7292136;19;20192;-83
2023/10/19 10:21:20;;;;;;;15.50;2.27;;;20.50;99.90;;;;;;7291495;19;20212;-83
2023/10/19 10:23:52;;;;;;;13.30;2.73;;;20.60;99.90;;;;;;7187722;19;2005014;-84
2023/10/19 10:26:22;;;;;;;19.03;3.20;;;20.70;99.90;;;;;;7285307;19;20239;-80
2023/10/19 10:29:06;;;;;;;17.73;3.23;;;20.50;99.90;;;;;;7287547;19;20197;-79
2023/10/19 10:31:36;;;;;;;18.43;3.03;;;20.50;99.90;;;;;;7290012;19;20700;-79
2023/10/19 10:34:02;;;;;;;15.80;2.53;;;20.30;99.90;;;;;;7286754;19;20207;-79
2023/10/19 10:36:57;;;;;;;16.83;2.53;;;20.30;99.90;;;;;;7288025;19;20560;-79
2023/10/19 10:39:25;;;;;;;16.53;3.20;;;20.20;99.90;;;;;;7186491;19;2005171;-79
2023/10/19 10:41:59;;;;;;;14.00;2.83;;;20.20;99.90;;;;;;7289277;19;20199;-79
2023/10/19 10:44:45;;;;;;;11.17;2.50;;;20.20;99.90;;;;;;7288912;19;20329;-79
2023/10/19 10:47:16;;;;;;;13.37;2.77;;;20.00;99.90;;;;;;7184114;19;2004851;-79
2023/10/19 10:49:48;;;;;;;14.13;2.87;;;19.90;99.90;;;;;;7287823;19;20678;-81
2023/10/19 10:52:34;;;;;;;16.53;2.60;;;19.90;99.90;;;;;;7288491;19;20200;-80
2023/10/19 10:55:14;;;;;;;14.57;3.00;;;19.80;99.90;;;;;;7287603;19;20198;-78
2023/10/19 10:57:42;;;;;;;16.83;2.87;;;19.80;99.90;;;;;;7185357;19;2004608;-79
2023/10/19 11:00:16;;;;;;;12.23;2.63;;;19.90;99.90;;;;;;7286379;19;20200;-80
2023/10/19 11:02:43;;;;;;;18.63;2.63;;;20.00;99.90;;;;;;7286149;19;20192;-81
2023/10/19 11:05:13;;;;;;;16.53;2.70;;;19.90;99.90;;;;;;7285912;19;20187;-83
2023/10/19 11:07:40;;;;;;;13.50;2.43;;;20.00;99.90;;;;;;7286626;19;20246;-84
2023/10/19 11:10:06;;;;;;;11.67;2.60;;;19.90;99.90;;;;;;7289422;19;20206;-83
2023/10/19 11:12:33;;;;;;;9.57;2.17;;;20.00;99.90;;;;;;7311154;19;20243;-84
2023/10/19 11:15:00;;;;;;;13.33;2.20;;;20.00;99.90;;;;;;7286689;19;20192;-84
2023/10/19 11:17:32;;;;;;;11.80;2.40;;;20.10;99.90;;;;;;7288920;19;20214;-84
2023/10/19 11:19:58;;;;;;;14.63;2.60;;;20.10;99.90;;;;;;7288234;19;20199;-84
2023/10/19 11:22:27;;;;;;;12.37;2.40;;;20.10;99.90;;;;;;7289558;19;20247;-83
2023/10/19 11:24:54;;;;;;;9.80;1.93;;;20.00;99.90;;;;;;7288217;19;20199;-83
2023/10/19 11:27:27;;;;;;;6.23;1.70;;;19.90;99.90;;;;;;7289609;19;20229;-84
2023/10/19 11:29:55;;;;;;;6.93;1.37;;;19.80;99.90;;;;;;7287394;19;20197;-82
2023/10/19 11:32:25;;;;;;;10.20;1.80;;;19.80;99.90;;;;;;7287622;19;20262;-84
2023/10/19 11:34:56;;;;;;;11.43;1.80;;;19.80;99.90;;;;;;7290755;19;20196;-83
2023/10/19 11:37:23;;;;;;;6.23;1.60;;;19.70;99.90;;;;;;7288946;19;20674;-84
2023/10/19 11:39:52;;;;;;;6.37;1.40;;;19.70;99.90;;;;;;7287668;19;20209;-84
2023/10/19 11:42:18;;;;;;;11.63;1.40;;;19.60;99.90;;;;;;7287350;19;20202;-84
2023/10/19 11:44:45;;;;;;;8.33;1.77;;;19.50;99.90;;;;;;7288786;19;20200;-83
2023/10/19 11:47:11;;;;;;;8.57;1.57;;;19.60;99.90;;;;;;7289428;19;20202;-84
2023/10/19 11:49:37;;;;;;;6.33;1.50;;;19.60;99.90;;;;;;7290720;19;20188;-84
2023/10/19 11:52:09;;;;;;;9.20;1.30;;;19.70;99.90;;;;;;7309785;19;20256;-84
2023/10/19 11:54:35;;;;;;;8.23;1.30;;;19.50;99.90;;;;;;7281962;19;20200;-83
2023/10/19 11:57:01;;;;;;;7.50;1.23;;;19.40;99.90;;;;;;7302728;19;20177;-84
2023/10/19 11:59:27;;;;;;;6.40;1.10;;;19.30;99.90;;;;;;7286872;19;20254;-83
2023/10/19 12:01:54;;;;;;;6.97;1.23;;;19.20;99.90;;;;;;7287755;19;20197;-84
2023/10/19 12:04:20;;;;;;;6.73;1.10;;;19.30;99.90;;;;;;7286980;19;20180;-83
2023/10/19 12:06:46;;;;;;;6.23;1.50;;;19.30;99.90;;;;;;7288910;19;20579;-83
2023/10/19 12:09:15;;;;;;;8.93;1.13;;;19.40;99.90;;;;;;7289231;19;20186;-83
2023/10/19 12:11:41;;;;;;;5.40;1.47;;;19.40;99.90;;;;;;7296973;19;20197;-84
2023/10/19 12:14:14;;;;;;;6.90;1.00;;;19.30;99.90;;;;;;7298027;19;20692;-84
2023/10/19 12:16:41;;;;;;;5.93;1.37;;;19.20;99.90;;;;;;7298067;19;20193;-84
2023/10/19 12:19:09;;;;;;;6.73;1.30;;;18.90;99.90;;;;;;7297228;19;20194;-82
2023/10/19 12:21:37;;;;;;;5.17;1.30;;;18.80;99.90;;;;;;7311448;19;20177;-83
2023/10/19 12:24:04;;;;;;;6.90;1.27;;;18.60;99.90;;;;;;7314531;19;20670;-83
2023/10/19 12:26:30;;;;;;;5.23;0.90;;;18.60;99.90;;;;;;7286823;19;20192;-83
2023/10/19 12:28:56;;;;;;;3.37;0.83;;;18.60;99.90;;;;;;7286690;19;20217;-82
2023/10/19 12:31:23;;;;;;;6.40;1.20;;;18.80;99.90;;;;;;7289697;19;20533;-83
2023/10/19 12:33:49;;;;;;;5.57;1.00;;;19.10;99.90;;;;;;7288710;19;20206;-83
2023/10/19 12:38:54;;;;;;;6.17;1.10;;;19.70;99.90;;;;;;7287438;19;20207;-83
2023/10/19 12:41:21;;;;;;;3.93;0.83;;;19.90;99.90;;;;;;7286797;19;20998;-83
2023/10/19 12:43:47;;;;;;;10.27;1.20;;;20.30;99.90;;;;;;7286447;19;20196;-84
2023/10/19 12:46:15;;;;;;;3.37;1.00;;;20.50;99.90;;;;;;7289562;19;20195;-84
2023/10/19 12:48:42;;;;;;;2.87;0.70;;;20.80;99.90;;;;;;7284013;19;20307;-83
2023/10/19 12:51:11;;;;;;;3.80;0.93;;;21.10;99.90;;;;;;7288829;19;20207;-84
2023/10/19 12:53:38;;;;;;;3.87;1.00;;;21.70;99.90;;;;;;7286241;19;20201;-84
2023/10/19 12:56:05;;;;;;;4.90;1.10;;;22.70;99.90;;;;;;7308978;19;20185;-84
2023/10/19 12:58:32;;;;;;;4.17;0.70;;;22.80;99.90;;;;;;7283848;19;20286;-85
2023/10/19 13:00:58;;;;;;;4.53;1.00;;;22.70;99.90;;;;;;7285803;19;20207;-84
2023/10/19 13:03:31;;;;;;;2.30;0.70;;;21.90;99.90;;;;;;7286419;19;20184;-85
2023/10/19 13:05:58;;;;;;;3.43;0.87;;;21.70;99.90;;;;;;7287315;19;20193;-84
2023/10/19 13:08:27;;;;;;;3.50;0.80;;;21.50;99.90;;;;;;7287424;19;20539;-85